Pittsburgh, PA

12:25 AM EDT on September 19, 2014 (GMT -0400)
Washington County | Change Station
CLOSE
Current Station
Airport
Location: Washington,
Elevation: 1184 ft
Nearby Weather Stations

Elev 1184 ft 40.14 °N, 80.29 °W | Updated 10 minutes ago

Clear
Clear
48 °F
Feels Like 48 °F
N
4
Wind Variable Wind from NNE

Today
High -- | Low -- °F
--% Chance of Precip.
Yesterday
High -- | Low -- °F
Precip. -- in
7:04 AM 7:21 PM
Waning Crescent, 22% visible
Pressure 30.18 in
Visibility 10.0 miles
Clouds Clear
Dew Point 46 °F
Humidity 93%
Rainfall 0.00 in
Snow Depth Not available.
UV 0 out of 12
Pollen 3.80 out of 12
Ozone Good
PM2.5 Moderate
Flu Activity Not available.
METAR KAFJ 190415Z AUTO 02003KT 10SM CLR 09/08 A3018 RMK AO1

More Conditions Fewer Conditions

Pressure 30.18 in
Visibility 10.0 miles
Clouds Clear
Dew Point 46 °F
Humidity 93%
Rainfall 0.00 in
Snow Depth Not available.
UV 0 out of 12
Pollen 3.80 out of 12
Ozone Good
PM2.5 Moderate
Flu Activity Not available.
METAR KAFJ 190415Z AUTO 02003KT 10SM CLR 09/08 A3018 RMK AO1

More Conditions Fewer Conditions

10-Day Weather Forecast

Almanac

Astronomy

Sep. 19, 2014 Rise Set
Actual Time 7:04 AM EDT 7:21 PM EDT
Civil Twilight 6:36 AM EDT 7:48 PM EDT
Nautical Twilight 6:04 AM EDT 8:20 PM EDT
Astronomical Twilight 5:32 AM EDT 8:53 PM EDT
Moon 2:47 AM EDT 4:50 PM EDT
Length of Visible Light 13h 11m
Length of Day
12h 17m
Tomorrow will be 2m 38s shorter.
Waning Crescent, 22% of the Moon is Illuminated
Today
Waning Crescent
Sep 24
New
Oct 1
First Quarter
Oct 8
Full
Oct 15
Last Quarter

Yesterday's Extremes

State Highs State Lows

Community

WunderPhotos

Upload Photos

1,754,558 photos uploaded!

Nearby

Air Quality

  Air Quality AQ Index Pollutant
Yesterday Moderate
PM2.5
Yesterday Good
OZONE
Current Moderate
PM2.5
Current Good
OZONE
Thursday Good
PM2.5
Friday Good
PM2.5
Saturday Moderate
PM2.5

Snow Depth

Station Depth Elevation
No new snow has been reported.

Earthquake Activity

City Distance Mag. Time & Date
No recent earthquake activity has been reported nearby.
Minimum magnitude displayed is 2.5.

Coastal Water Temperatures

Place Temperature
No Stations Reporting

Nearby Weather Stations